الصفحة الرئيسية
METAR-TAF:

METAR-TAF

مطار :

مطار فاس سايس الدولي

فاس, المغرب

دائرة عرض: 33-56N, خط طول: 004-59W, ارتفاع: 579 متر

مراقبة الطقس الحالي

تاريخ ووقت الإصدار 24 دقيقة قبل الساعة 03:00UTC
ريح 2 عقدةمن اتجاهات متغيرة
درجة الحرارة 10°درجة مئوية
الرطوبة 100%
ضغط 1028 hPa
الرؤية: 6000 متر
غيوم مفككة على ارتفاع 300 قدم

METAR: GMFF 180300Z VRB02KT 6000 BKN003 10/10 Q1028 TEMPO 2000 BR

زمن: 04:24 (03:24 UTC)

توقعات

تاريخ ووقت الإصدار 4ساعات و 24 دقيقة قبل الساعة 23:00UTC
التوقعات صالحة من18 الساعة 00 UTC إلى 19 الساعة 06 UTC
ريح 6 عقدة من الجنوب
الرؤية 10 كم أو أكثر
الغيوم لا تقل 1500 م ولا وجود لمزنة ركامية السحاب الأسود
أصبح
من 18 الساعة 04 UTC إلى 18 الساعة 06 UTC
الرؤية: 2000 متر
غيوم مفككة على ارتفاع 300 قدم
غشاء
أصبح
من 18 الساعة 10 UTC إلى 18 الساعة 12 UTC
ريح 10 عقدة من الشمال الغربي
الرؤية 10 كم أو أكثر
الغيوم لا تقل 1500 م ولا وجود لمزنة ركامية السحاب الأسود

TAF: GMFF 172300Z 1800/1906 18006KT CAVOK BECMG 1804/1806 2000 BR BKN003 BECMG 1810/1812 32010KT CAVOK

أرصاد الطقس والتوقعات من أكثر من 4000 مطار (تقارير الطقس للمطار METAR والتنبؤ بالطقس بالمطارTAF).

المحطات المتاحة هي النقط الصفراء والحمراء على الخريطة.

حرك المؤشر فوق النقطة لمعرفة اسم المحطة.

ثم انقر لمعرفة أرصاد وتوقعات الطقس.

لتغيير الخارطة: اضغط على الأزرار الخضراء مع رمز الصليب الأسود للتكبير. على الزر الأخضر مع شرطة للتصغير، أو على الأسهم الخضراء للخرائط المجاورة.


METAR-TAF: